createdAt,value
2022-12-25T00:01:23.138Z,11.10
2022-12-25T00:03:36.515Z,14.00
2022-12-25T00:05:49.933Z,13.10
2022-12-25T00:08:03.260Z,21.40
2022-12-25T00:10:17.403Z,19.40
2022-12-25T00:12:30.793Z,18.60
2022-12-25T00:14:44.216Z,17.80
2022-12-25T00:16:57.547Z,21.30
2022-12-25T00:19:10.943Z,20.00
2022-12-25T00:21:24.905Z,17.80
2022-12-25T00:23:38.813Z,20.40
2022-12-25T00:25:52.162Z,19.30
2022-12-25T00:28:05.458Z,14.90
2022-12-25T00:30:19.479Z,20.70
2022-12-25T00:32:32.973Z,16.30
2022-12-25T00:34:46.413Z,18.30
2022-12-25T00:36:59.851Z,21.80
2022-12-25T00:39:13.412Z,20.00
2022-12-25T00:41:40.931Z,18.40
2022-12-25T00:43:54.213Z,17.40
2022-12-25T00:46:09.353Z,16.70
2022-12-25T00:48:22.611Z,18.50
2022-12-25T00:50:35.874Z,18.30
2022-12-25T00:52:49.054Z,17.80
2022-12-25T00:55:02.313Z,13.40
2022-12-25T00:57:15.590Z,18.10
2022-12-25T00:59:28.719Z,15.00
2022-12-25T01:01:42.318Z,18.90
2022-12-25T01:03:55.905Z,19.10
2022-12-25T01:06:12.101Z,17.30
2022-12-25T01:08:25.530Z,21.40
2022-12-25T01:10:39.017Z,21.30
2022-12-25T01:12:53.437Z,20.20
2022-12-25T01:15:06.900Z,18.90
2022-12-25T01:17:20.296Z,14.80
2022-12-25T01:19:33.566Z,13.60
2022-12-25T01:21:46.900Z,16.50
2022-12-25T01:24:00.472Z,13.80
2022-12-25T01:26:15.800Z,10.60
2022-12-25T01:28:29.147Z,15.20
2022-12-25T01:30:43.181Z,24.20
2022-12-25T01:32:57.648Z,16.30
2022-12-25T01:35:11.797Z,16.60
2022-12-25T01:37:25.076Z,13.60
2022-12-25T01:39:38.209Z,14.50
2022-12-25T01:41:51.547Z,11.40
2022-12-25T01:44:08.660Z,16.80
2022-12-25T01:46:22.205Z,12.00
2022-12-25T01:48:39.193Z,12.30
2022-12-25T01:50:55.928Z,12.30
2022-12-25T01:53:09.805Z,11.80
2022-12-25T01:55:23.619Z,18.80
2022-12-25T01:57:39.706Z,19.40
2022-12-25T01:59:53.958Z,25.50
2022-12-25T02:02:07.620Z,16.80
2022-12-25T02:04:39.926Z,20.00
2022-12-25T02:06:55.143Z,13.00
2022-12-25T02:09:09.436Z,14.60
2022-12-25T02:11:38.033Z,13.70
2022-12-25T02:13:51.375Z,15.60
2022-12-25T02:16:10.230Z,14.00
2022-12-25T02:18:33.254Z,15.20
2022-12-25T02:21:21.705Z,15.50
2022-12-25T02:24:01.431Z,18.70
2022-12-25T02:26:28.969Z,21.00
2022-12-25T02:28:48.100Z,15.50
2022-12-25T02:31:08.036Z,8.60
2022-12-25T02:33:47.272Z,14.30
2022-12-25T02:36:04.514Z,18.40
2022-12-25T02:38:23.816Z,16.80
2022-12-25T02:40:41.496Z,12.40
2022-12-25T02:43:16.121Z,7.20
2022-12-25T02:45:52.299Z,6.50
2022-12-25T02:48:22.850Z,8.90
2022-12-25T02:50:53.014Z,8.10
2022-12-25T02:53:24.880Z,6.40
2022-12-25T02:56:01.551Z,4.70
2022-12-25T02:58:36.428Z,6.10
2022-12-25T03:01:10.431Z,8.40
2022-12-25T03:03:40.982Z,5.60
2022-12-25T03:06:11.764Z,3.90
2022-12-25T03:08:28.918Z,8.00
2022-12-25T03:11:01.076Z,7.20
2022-12-25T03:13:20.761Z,4.70
2022-12-25T03:15:51.902Z,7.40
2022-12-25T03:18:08.619Z,3.60
2022-12-25T03:20:40.610Z,3.40
2022-12-25T03:23:13.040Z,2.60
2022-12-25T03:25:42.811Z,2.20
2022-12-25T03:27:58.731Z,2.60
2022-12-25T03:30:31.794Z,4.30
2022-12-25T03:32:59.907Z,6.70
2022-12-25T03:35:26.650Z,3.30
2022-12-25T03:38:14.033Z,7.50
2022-12-25T03:41:04.639Z,7.90
2022-12-25T03:43:45.885Z,7.40
2022-12-25T03:46:19.412Z,5.80
2022-12-25T03:48:52.564Z,5.30
2022-12-25T03:51:27.700Z,6.60
2022-12-25T03:54:03.704Z,8.90
2022-12-25T03:56:36.290Z,5.80
2022-12-25T03:59:21.092Z,9.60
2022-12-25T04:01:53.350Z,6.70
2022-12-25T04:04:22.972Z,10.90
2022-12-25T04:06:52.191Z,5.50
2022-12-25T04:09:22.041Z,6.50
2022-12-25T04:11:52.622Z,11.30
2022-12-25T04:16:52.266Z,8.00
2022-12-25T04:19:21.767Z,3.80
2022-12-25T04:21:51.139Z,5.40
2022-12-25T04:24:20.708Z,4.40
2022-12-25T04:26:50.259Z,7.80
2022-12-25T04:29:19.961Z,7.60
2022-12-25T04:31:49.413Z,7.70
2022-12-25T04:34:19.233Z,8.30
2022-12-25T04:36:33.655Z,8.90
2022-12-25T04:38:48.155Z,5.70
2022-12-25T04:41:01.413Z,4.90
2022-12-25T04:43:14.611Z,7.20
2022-12-25T04:45:27.862Z,4.70
2022-12-25T04:47:41.169Z,4.60
2022-12-25T04:49:54.558Z,9.60
2022-12-25T04:52:07.830Z,11.70
2022-12-25T04:54:21.997Z,10.10
2022-12-25T04:56:38.494Z,12.90
2022-12-25T04:58:55.801Z,7.80
2022-12-25T05:01:09.595Z,8.20
2022-12-25T05:03:23.091Z,8.30
2022-12-25T05:05:36.923Z,7.40
2022-12-25T05:07:50.361Z,11.20
2022-12-25T05:10:03.828Z,7.40
2022-12-25T05:12:18.124Z,7.60
2022-12-25T05:14:31.760Z,7.80
2022-12-25T05:16:46.499Z,10.20
2022-12-25T05:18:59.948Z,8.30
2022-12-25T05:21:14.898Z,8.80
2022-12-25T05:23:29.618Z,12.70
2022-12-25T05:25:44.818Z,9.90
2022-12-25T05:27:59.072Z,7.60
2022-12-25T05:30:15.095Z,8.10
2022-12-25T05:32:28.502Z,7.70
2022-12-25T05:34:42.053Z,9.80
2022-12-25T05:36:55.403Z,8.00
2022-12-25T05:39:09.678Z,10.90
2022-12-25T05:41:23.235Z,11.60
2022-12-25T05:43:36.730Z,11.50
2022-12-25T05:45:50.819Z,14.20
2022-12-25T05:48:04.308Z,13.90
2022-12-25T05:50:17.922Z,9.50
2022-12-25T05:52:33.766Z,10.00
2022-12-25T05:54:47.182Z,8.90
2022-12-25T05:57:00.472Z,9.10
2022-12-25T05:59:13.791Z,23.90
2022-12-25T06:01:29.372Z,17.60
2022-12-25T06:03:42.927Z,21.50
2022-12-25T06:05:56.380Z,16.20
2022-12-25T06:08:09.647Z,26.10
2022-12-25T06:10:23.120Z,15.00
2022-12-25T06:12:36.337Z,13.60
2022-12-25T06:14:49.580Z,14.90
2022-12-25T06:17:03.156Z,14.60
2022-12-25T06:19:16.763Z,10.20
2022-12-25T06:21:30.023Z,14.40
2022-12-25T06:23:44.147Z,13.80
2022-12-25T06:25:57.392Z,19.20
2022-12-25T06:28:11.081Z,8.60
2022-12-25T06:30:27.034Z,7.50
2022-12-25T06:32:40.808Z,7.90
2022-12-25T06:34:54.304Z,11.90
2022-12-25T06:37:07.620Z,10.40
2022-12-25T06:39:20.797Z,10.90
2022-12-25T06:41:35.293Z,22.00
2022-12-25T06:43:50.902Z,13.50
2022-12-25T06:46:09.498Z,11.70
2022-12-25T06:48:22.878Z,12.10
2022-12-25T06:50:36.247Z,12.20
2022-12-25T06:52:49.648Z,11.20
2022-12-25T06:55:03.109Z,11.20
2022-12-25T06:57:16.490Z,11.80
2022-12-25T06:59:30.122Z,8.40
2022-12-25T07:01:49.219Z,12.10
2022-12-25T07:04:05.538Z,12.80
2022-12-25T07:06:19.447Z,11.10
2022-12-25T07:08:32.835Z,11.70
2022-12-25T07:10:46.533Z,10.10
2022-12-25T07:12:59.695Z,9.60
2022-12-25T07:15:15.201Z,10.10
2022-12-25T07:17:28.616Z,10.70
2022-12-25T07:19:45.153Z,11.10
2022-12-25T07:21:59.117Z,15.50
2022-12-25T07:24:13.244Z,11.90
2022-12-25T07:26:26.725Z,16.80
2022-12-25T07:28:40.515Z,18.90
2022-12-25T07:30:54.150Z,19.00
2022-12-25T07:33:07.614Z,14.30
2022-12-25T07:35:21.078Z,13.80
2022-12-25T07:37:35.364Z,17.10
2022-12-25T07:39:48.557Z,17.20
2022-12-25T07:42:02.129Z,23.80
2022-12-25T07:44:15.462Z,22.10
2022-12-25T07:46:29.475Z,23.20
2022-12-25T07:48:43.024Z,19.20
2022-12-25T07:51:02.646Z,18.10
2022-12-25T07:53:16.121Z,22.40
2022-12-25T07:55:29.511Z,24.60
2022-12-25T07:57:42.941Z,25.20
2022-12-25T07:59:56.303Z,27.40
2022-12-25T08:02:10.127Z,29.70
2022-12-25T08:04:24.327Z,23.20
2022-12-25T08:06:39.978Z,19.00
2022-12-25T08:08:53.361Z,20.80
2022-12-25T08:11:06.797Z,17.00
2022-12-25T08:13:20.145Z,18.70
2022-12-25T08:15:33.673Z,15.40
2022-12-25T08:17:46.945Z,20.40
2022-12-25T08:20:00.293Z,18.00
2022-12-25T08:22:13.866Z,13.50
2022-12-25T08:24:27.440Z,15.90
2022-12-25T08:26:40.983Z,16.10
2022-12-25T08:28:55.213Z,15.30
2022-12-25T08:31:12.704Z,15.30
2022-12-25T08:33:27.204Z,15.10
2022-12-25T08:35:42.106Z,11.90
2022-12-25T08:37:55.527Z,13.30
2022-12-25T08:40:09.754Z,15.40
2022-12-25T08:42:23.262Z,9.00
2022-12-25T08:44:36.671Z,13.40
2022-12-25T08:46:50.168Z,15.20
2022-12-25T08:49:03.570Z,8.40
2022-12-25T08:51:18.629Z,11.50
2022-12-25T08:53:32.135Z,13.20
2022-12-25T08:55:45.706Z,15.80
2022-12-25T08:58:01.044Z,19.20
2022-12-25T09:00:16.129Z,21.20
2022-12-25T09:02:30.073Z,23.00
2022-12-25T09:04:43.986Z,23.80
2022-12-25T09:06:57.430Z,24.60
2022-12-25T09:09:10.808Z,21.70
2022-12-25T09:11:25.627Z,21.30
2022-12-25T09:13:39.130Z,21.20
2022-12-25T09:15:52.724Z,22.30
2022-12-25T09:18:06.122Z,19.20
2022-12-25T09:20:19.556Z,16.40
2022-12-25T09:22:33.954Z,14.00
2022-12-25T09:24:47.431Z,12.90
2022-12-25T09:27:00.955Z,11.00
2022-12-25T09:29:15.833Z,12.20
2022-12-25T09:31:29.628Z,14.60
2022-12-25T09:33:43.434Z,12.90
2022-12-25T09:36:02.243Z,10.90
2022-12-25T09:38:15.724Z,15.60
2022-12-25T09:40:33.431Z,18.50
2022-12-25T09:42:47.545Z,15.80
2022-12-25T09:45:04.360Z,14.80
2022-12-25T09:47:22.212Z,15.60
2022-12-25T09:49:43.654Z,14.50
2022-12-25T09:52:03.124Z,12.40
2022-12-25T09:54:24.742Z,12.30
2022-12-25T09:56:39.643Z,17.80
2022-12-25T09:58:53.075Z,22.30
2022-12-25T10:01:17.548Z,29.40
2022-12-25T10:03:49.125Z,25.60
2022-12-25T10:06:18.700Z,23.80
2022-12-25T10:08:49.131Z,15.40
2022-12-25T10:11:08.265Z,16.40
2022-12-25T10:13:37.207Z,16.00
2022-12-25T10:16:07.494Z,19.10
2022-12-25T10:18:46.662Z,24.80
2022-12-25T10:21:01.445Z,29.80
2022-12-25T10:23:21.644Z,30.30
2022-12-25T10:25:35.331Z,33.10
2022-12-25T10:27:53.069Z,32.70
2022-12-25T10:30:09.975Z,39.20
2022-12-25T10:32:23.191Z,30.60
2022-12-25T10:34:37.124Z,26.50
2022-12-25T10:36:52.320Z,23.90
2022-12-25T10:39:05.765Z,20.50
2022-12-25T10:41:31.999Z,22.90
2022-12-25T10:43:51.265Z,24.30
2022-12-25T10:46:05.111Z,17.50
2022-12-25T10:48:26.190Z,17.90
2022-12-25T10:50:46.112Z,16.70
2022-12-25T10:53:03.496Z,19.80
2022-12-25T10:55:29.193Z,17.70
2022-12-25T10:57:50.770Z,17.00
2022-12-25T11:00:04.161Z,16.10
2022-12-25T11:02:25.037Z,27.40
2022-12-25T11:04:41.521Z,46.10
2022-12-25T11:07:04.526Z,59.50
2022-12-25T11:09:22.817Z,52.60
2022-12-25T11:11:36.543Z,52.20
2022-12-25T11:13:56.576Z,13.50
2022-12-25T11:16:13.750Z,27.30
2022-12-25T11:18:29.924Z,39.40
2022-12-25T11:20:47.118Z,80.20
2022-12-25T11:23:00.536Z,51.90
2022-12-25T11:25:27.775Z,57.90
2022-12-25T11:27:41.159Z,48.40
2022-12-25T11:29:58.407Z,34.20
2022-12-25T11:32:20.830Z,33.30
2022-12-25T11:34:39.600Z,27.80
2022-12-25T11:36:55.252Z,26.30
2022-12-25T11:39:24.889Z,20.00
2022-12-25T11:41:42.669Z,16.20
2022-12-25T11:44:00.516Z,14.10
2022-12-25T11:46:20.481Z,11.10
2022-12-25T11:48:38.869Z,10.90
2022-12-25T11:50:55.250Z,12.00
2022-12-25T11:53:10.350Z,11.10
2022-12-25T11:55:30.842Z,10.60
2022-12-25T11:57:47.417Z,11.20
2022-12-25T12:00:07.790Z,14.90
2022-12-25T12:02:33.467Z,17.30
2022-12-25T12:04:50.847Z,20.00
2022-12-25T12:07:08.408Z,27.40
2022-12-25T12:09:33.579Z,24.10
2022-12-25T12:11:57.230Z,18.60
2022-12-25T12:14:27.526Z,12.30
2022-12-25T12:16:41.612Z,14.30
2022-12-25T12:18:55.306Z,42.10
2022-12-25T12:21:23.875Z,78.50
2022-12-25T12:23:40.492Z,81.80
2022-12-25T12:25:54.071Z,79.80
2022-12-25T12:28:07.784Z,81.90
2022-12-25T12:30:32.430Z,75.10
2022-12-25T12:32:48.930Z,64.70
2022-12-25T12:35:04.172Z,49.20
2022-12-25T12:37:29.127Z,48.10
2022-12-25T12:39:45.767Z,53.20
2022-12-25T12:41:59.438Z,58.70
2022-12-25T12:44:15.166Z,58.70
2022-12-25T12:46:31.559Z,62.70
2022-12-25T12:48:49.718Z,56.80
2022-12-25T12:51:12.027Z,56.80
2022-12-25T12:53:34.555Z,48.60
2022-12-25T12:55:48.467Z,51.70
2022-12-25T12:58:07.868Z,43.60
2022-12-25T13:00:24.436Z,44.10
2022-12-25T13:03:09.239Z,41.80
2022-12-25T13:05:34.697Z,36.40
2022-12-25T13:07:57.803Z,35.40
2022-12-25T13:10:24.274Z,34.60
2022-12-25T13:12:38.761Z,35.30
2022-12-25T13:14:54.143Z,31.80
2022-12-25T13:17:11.455Z,27.00
2022-12-25T13:19:26.312Z,27.80
2022-12-25T13:21:39.828Z,26.90
2022-12-25T13:23:59.014Z,26.10
2022-12-25T13:26:18.131Z,24.40
2022-12-25T13:28:36.708Z,59.10
2022-12-25T13:30:50.184Z,84.90
2022-12-25T13:33:04.015Z,63.50
2022-12-25T13:35:20.969Z,46.90
2022-12-25T13:37:36.411Z,39.30
2022-12-25T13:39:55.310Z,32.00
2022-12-25T13:42:12.365Z,29.20
2022-12-25T13:44:29.638Z,26.20
2022-12-25T13:46:43.396Z,27.60
2022-12-25T13:49:03.379Z,20.50
2022-12-25T13:51:20.516Z,17.40
2022-12-25T13:53:34.033Z,15.00
2022-12-25T13:55:50.531Z,12.60
2022-12-25T13:58:06.945Z,11.40
2022-12-25T14:00:29.247Z,10.50
2022-12-25T14:02:44.194Z,78.20
2022-12-25T14:04:57.542Z,26.80
2022-12-25T14:07:21.826Z,20.60
2022-12-25T14:09:36.031Z,14.10
2022-12-25T14:11:53.975Z,13.00
2022-12-25T14:14:11.669Z,19.20
2022-12-25T14:16:25.964Z,21.80
2022-12-25T14:18:39.935Z,15.90
2022-12-25T14:21:05.960Z,11.50
2022-12-25T14:23:21.729Z,13.70
2022-12-25T14:25:38.738Z,22.70
2022-12-25T14:27:57.052Z,17.00
2022-12-25T14:30:19.542Z,11.60
2022-12-25T14:32:34.805Z,11.20
2022-12-25T14:34:49.797Z,11.00
2022-12-25T14:37:03.589Z,10.00
2022-12-25T14:39:38.343Z,10.60
2022-12-25T14:41:59.154Z,7.10
2022-12-25T14:44:35.419Z,9.20
2022-12-25T14:46:48.709Z,9.60
2022-12-25T14:49:08.265Z,8.70
2022-12-25T14:51:24.112Z,9.40
2022-12-25T14:53:42.268Z,11.30
2022-12-25T14:55:57.432Z,13.90
2022-12-25T14:58:22.160Z,16.30
2022-12-25T15:00:38.061Z,16.30
2022-12-25T15:02:53.131Z,15.20
2022-12-25T15:05:06.469Z,13.80
2022-12-25T15:07:33.598Z,12.60
2022-12-25T15:09:46.952Z,17.10
2022-12-25T15:12:00.945Z,12.00
2022-12-25T15:14:14.313Z,14.80
2022-12-25T15:16:30.176Z,15.90
2022-12-25T15:18:46.553Z,10.20
2022-12-25T15:21:00.103Z,16.70
2022-12-25T15:23:20.227Z,13.10
2022-12-25T15:25:33.968Z,13.00
2022-12-25T15:27:47.279Z,12.40
2022-12-25T15:30:09.822Z,9.30
2022-12-25T15:32:26.472Z,9.90
2022-12-25T15:34:39.972Z,13.10
2022-12-25T15:36:54.629Z,10.00
2022-12-25T15:39:07.928Z,12.00
2022-12-25T15:41:36.329Z,12.20
2022-12-25T15:43:49.874Z,13.50
2022-12-25T15:46:03.313Z,9.70
2022-12-25T15:48:16.595Z,10.40
2022-12-25T15:50:31.556Z,6.60
2022-12-25T15:52:44.798Z,10.30
2022-12-25T15:54:59.175Z,13.80
2022-12-25T15:57:20.630Z,15.80
2022-12-25T15:59:34.076Z,10.90
2022-12-25T16:01:50.881Z,11.80
2022-12-25T16:04:04.298Z,7.50
2022-12-25T16:06:20.810Z,13.60
2022-12-25T16:08:33.950Z,17.30
2022-12-25T16:10:48.293Z,16.50
2022-12-25T16:13:01.579Z,19.20
2022-12-25T16:15:18.032Z,16.40
2022-12-25T16:17:31.358Z,12.10
2022-12-25T16:19:45.756Z,19.10
2022-12-25T16:21:59.236Z,26.60
2022-12-25T16:24:13.907Z,21.60
2022-12-25T16:26:27.436Z,15.70
2022-12-25T16:28:40.868Z,14.00
2022-12-25T16:30:54.877Z,16.80
2022-12-25T16:33:09.065Z,14.60
2022-12-25T16:35:23.084Z,12.90
2022-12-25T16:37:36.531Z,13.90
2022-12-25T16:39:49.949Z,9.30
2022-12-25T16:42:03.381Z,11.10
2022-12-25T16:44:17.278Z,9.60
2022-12-25T16:46:31.079Z,9.00
2022-12-25T16:48:44.627Z,3.80
2022-12-25T16:50:57.989Z,4.30
2022-12-25T16:53:13.486Z,10.30
2022-12-25T16:55:30.214Z,12.50
2022-12-25T16:57:43.810Z,9.00
2022-12-25T16:59:57.209Z,8.90
2022-12-25T17:02:10.707Z,13.20
2022-12-25T17:04:24.113Z,14.60
2022-12-25T17:06:37.433Z,16.60
2022-12-25T17:08:50.746Z,20.00
2022-12-25T17:11:07.357Z,16.30
2022-12-25T17:13:20.798Z,22.00
2022-12-25T17:15:34.115Z,24.70
2022-12-25T17:17:47.373Z,17.20
2022-12-25T17:20:00.667Z,16.60
2022-12-25T17:22:14.073Z,21.70
2022-12-25T17:24:27.733Z,16.30
2022-12-25T17:26:42.088Z,16.70
2022-12-25T17:28:55.345Z,14.40
2022-12-25T17:31:11.324Z,11.60
2022-12-25T17:33:24.663Z,14.50
2022-12-25T17:35:41.064Z,14.70
2022-12-25T17:37:54.635Z,11.80
2022-12-25T17:40:08.377Z,11.40
2022-12-25T17:42:21.665Z,11.70
2022-12-25T17:44:35.076Z,9.40
2022-12-25T17:46:49.433Z,8.80
2022-12-25T17:49:04.186Z,10.00
2022-12-25T17:51:19.197Z,13.80
2022-12-25T17:53:34.831Z,12.40
2022-12-25T17:55:48.873Z,7.70
2022-12-25T17:58:02.748Z,8.40
2022-12-25T18:00:17.629Z,13.40
2022-12-25T18:02:32.146Z,13.10
2022-12-25T18:04:48.481Z,13.40
2022-12-25T18:07:04.617Z,9.70
2022-12-25T18:09:18.167Z,7.10
2022-12-25T18:11:34.153Z,4.30
2022-12-25T18:13:53.345Z,4.30
2022-12-25T18:16:11.155Z,1.30
2022-12-25T18:18:24.465Z,1.30
2022-12-25T18:20:40.501Z,1.10
2022-12-25T18:22:54.898Z,12.80
2022-12-25T18:25:08.557Z,7.30
2022-12-25T18:27:21.951Z,11.20
2022-12-25T18:29:35.302Z,8.00
2022-12-25T18:31:49.662Z,3.10
2022-12-25T18:34:03.353Z,2.40
2022-12-25T18:36:18.582Z,4.90
2022-12-25T18:38:32.367Z,8.50
2022-12-25T18:40:49.100Z,15.40
2022-12-25T18:43:03.708Z,11.80
2022-12-25T18:45:19.079Z,13.40
2022-12-25T18:47:32.632Z,13.30
2022-12-25T18:49:45.945Z,10.30
2022-12-25T18:52:49.351Z,15.80
2022-12-25T18:54:32.845Z,17.70
2022-12-25T18:56:52.940Z,29.80
2022-12-25T18:59:07.400Z,26.80
2022-12-25T19:01:23.651Z,13.70
2022-12-25T19:03:37.370Z,15.30
2022-12-25T19:05:51.167Z,13.30
2022-12-25T19:08:04.770Z,20.90
2022-12-25T19:10:18.135Z,20.20
2022-12-25T19:12:31.406Z,31.30
2022-12-25T19:14:48.144Z,27.00
2022-12-25T19:17:02.907Z,20.90
2022-12-25T19:19:16.710Z,15.30
2022-12-25T19:21:30.069Z,18.40
2022-12-25T19:23:43.836Z,18.10
2022-12-25T19:25:57.301Z,20.80
2022-12-25T19:28:10.888Z,18.90
2022-12-25T19:30:24.435Z,17.20
2022-12-25T19:32:38.973Z,22.50
2022-12-25T19:34:52.406Z,18.00
2022-12-25T19:37:05.737Z,19.50
2022-12-25T19:39:19.751Z,29.90
2022-12-25T19:41:34.150Z,25.20
2022-12-25T19:43:48.606Z,19.80
2022-12-25T19:46:02.771Z,12.80
2022-12-25T19:48:16.531Z,15.80
2022-12-25T19:50:31.891Z,22.30
2022-12-25T19:52:45.743Z,16.70
2022-12-25T19:54:59.295Z,20.70
2022-12-25T19:57:12.736Z,18.00
2022-12-25T19:59:26.361Z,15.00
2022-12-25T20:01:40.129Z,20.30
2022-12-25T20:03:54.300Z,30.40
2022-12-25T20:06:09.760Z,24.60
2022-12-25T20:08:23.714Z,20.30
2022-12-25T20:10:37.271Z,19.60
2022-12-25T20:12:51.149Z,20.10
2022-12-25T20:15:06.991Z,20.90
2022-12-25T20:17:20.431Z,20.10
2022-12-25T20:19:34.080Z,16.40
2022-12-25T20:21:47.520Z,14.00
2022-12-25T20:24:01.394Z,16.40
2022-12-25T20:26:15.883Z,14.40
2022-12-25T20:28:29.370Z,9.40
2022-12-25T20:30:45.083Z,13.50
2022-12-25T20:32:59.436Z,15.00
2022-12-25T20:35:17.911Z,14.60
2022-12-25T20:37:31.336Z,9.60
2022-12-25T20:39:45.084Z,17.00
2022-12-25T20:41:58.249Z,13.20
2022-12-25T20:44:14.321Z,17.00
2022-12-25T20:46:27.756Z,20.10
2022-12-25T20:48:41.017Z,14.00
2022-12-25T20:50:54.868Z,14.50
2022-12-25T20:53:08.020Z,12.30
2022-12-25T20:55:21.531Z,13.90
2022-12-25T20:57:34.949Z,11.00
2022-12-25T20:59:48.481Z,7.70
2022-12-25T21:02:02.080Z,7.90
2022-12-25T21:04:16.687Z,9.10
2022-12-25T21:06:31.572Z,9.90
2022-12-25T21:08:45.111Z,9.40
2022-12-25T21:11:01.899Z,7.90
2022-12-25T21:13:15.636Z,10.00
2022-12-25T21:15:29.056Z,18.40
2022-12-25T21:17:42.491Z,16.50
2022-12-25T21:19:55.837Z,18.20
2022-12-25T21:22:09.667Z,14.20
2022-12-25T21:24:22.987Z,14.50
2022-12-25T21:26:36.617Z,15.10
2022-12-25T21:28:51.158Z,18.80
2022-12-25T21:31:10.193Z,19.00
2022-12-25T21:33:40.238Z,18.90
2022-12-25T21:35:55.021Z,13.70
2022-12-25T21:38:08.418Z,11.90
2022-12-25T21:40:22.731Z,17.50
2022-12-25T21:42:35.955Z,20.10
2022-12-25T21:44:49.145Z,15.80
2022-12-25T21:47:03.386Z,11.20
2022-12-25T21:49:37.432Z,16.60
2022-12-25T21:52:15.410Z,10.80
2022-12-25T21:54:29.281Z,17.50
2022-12-25T21:56:45.293Z,15.90
2022-12-25T21:58:58.824Z,12.50
2022-12-25T22:01:12.862Z,20.60
2022-12-25T22:03:26.723Z,21.10
2022-12-25T22:05:58.571Z,23.30
2022-12-25T22:08:11.939Z,20.30
2022-12-25T22:10:25.280Z,19.70
2022-12-25T22:12:56.132Z,22.20
2022-12-25T22:15:11.372Z,18.90
2022-12-25T22:17:42.889Z,17.30
2022-12-25T22:19:57.656Z,21.80
2022-12-25T22:22:10.916Z,17.00
2022-12-25T22:24:24.405Z,19.60
2022-12-25T22:26:37.953Z,13.40
2022-12-25T22:28:51.277Z,16.90
2022-12-25T22:31:06.437Z,16.10
2022-12-25T22:33:21.747Z,13.20
2022-12-25T22:35:35.108Z,18.40
2022-12-25T22:37:49.496Z,16.50
2022-12-25T22:40:04.248Z,12.10
2022-12-25T22:42:17.629Z,15.00
2022-12-25T22:44:32.774Z,18.50
2022-12-25T22:46:46.101Z,11.80
2022-12-25T22:49:00.043Z,10.20
2022-12-25T22:51:14.035Z,9.00
2022-12-25T22:53:27.385Z,8.40
2022-12-25T22:55:40.598Z,7.30
2022-12-25T22:57:53.803Z,8.50
2022-12-25T23:00:07.931Z,11.50
2022-12-25T23:02:21.329Z,7.70
2022-12-25T23:04:34.983Z,5.00
2022-12-25T23:06:48.298Z,3.40
2022-12-25T23:09:01.829Z,6.00
2022-12-25T23:11:15.868Z,4.50
2022-12-25T23:13:45.389Z,7.70
2022-12-25T23:15:58.695Z,9.80
2022-12-25T23:18:28.984Z,17.90
2022-12-25T23:20:57.662Z,13.90
2022-12-25T23:23:29.007Z,14.40
2022-12-25T23:25:59.202Z,11.80
2022-12-25T23:28:12.542Z,11.90
2022-12-25T23:30:26.109Z,7.50
2022-12-25T23:32:39.583Z,7.60
2022-12-25T23:34:52.891Z,10.60
2022-12-25T23:37:06.228Z,7.00
2022-12-25T23:39:20.511Z,3.80
2022-12-25T23:41:34.015Z,2.70
2022-12-25T23:43:47.202Z,4.30
2022-12-25T23:46:00.427Z,6.90
2022-12-25T23:48:14.159Z,4.10
2022-12-25T23:50:27.432Z,4.20
2022-12-25T23:52:41.439Z,6.70
2022-12-25T23:54:54.625Z,4.30
2022-12-25T23:57:08.994Z,7.30
2022-12-25T23:59:22.641Z,9.10
